createdAt,value
2023-04-22T00:00:43.420Z,100086.00
2023-04-22T00:03:12.021Z,100084.00
2023-04-22T00:05:40.318Z,100078.00
2023-04-22T00:08:09.008Z,100077.00
2023-04-22T00:10:36.917Z,100074.00
2023-04-22T00:13:04.852Z,100073.00
2023-04-22T00:15:33.358Z,100063.00
2023-04-22T00:18:01.889Z,100057.00
2023-04-22T00:20:32.634Z,100066.00
2023-04-22T00:23:00.528Z,100057.00
2023-04-22T00:25:28.785Z,100056.00
2023-04-22T00:27:56.860Z,100051.00
2023-04-22T00:30:25.126Z,100057.00
2023-04-22T00:32:53.455Z,100040.00
2023-04-22T00:35:23.943Z,100044.00
2023-04-22T00:37:52.192Z,100043.00
2023-04-22T00:40:22.525Z,100039.00
2023-04-22T00:42:51.593Z,100031.00
2023-04-22T00:45:21.159Z,100038.00
2023-04-22T00:47:49.598Z,100032.00
2023-04-22T00:50:17.775Z,100027.00
2023-04-22T00:52:45.813Z,100025.00
2023-04-22T00:55:13.757Z,100019.00
2023-04-22T00:57:41.708Z,100018.00
2023-04-22T01:00:12.079Z,100009.00
2023-04-22T01:02:40.597Z,100009.00
2023-04-22T01:05:10.043Z,100012.00
2023-04-22T01:07:38.315Z,100021.00
2023-04-22T01:10:07.464Z,100022.00
2023-04-22T01:12:35.787Z,100025.00
2023-04-22T01:15:05.039Z,100027.00
2023-04-22T01:17:34.918Z,100012.00
2023-04-22T01:20:06.440Z,100006.00
2023-04-22T01:22:41.559Z,100007.00
2023-04-22T01:25:13.108Z,100007.00
2023-04-22T01:27:41.456Z,100013.00
2023-04-22T01:30:10.411Z,100008.00
2023-04-22T01:32:41.467Z,100008.00
2023-04-22T01:35:11.645Z,100006.00
2023-04-22T01:37:40.088Z,100011.00
2023-04-22T01:40:10.275Z,100013.00
2023-04-22T01:42:38.750Z,100020.00
2023-04-22T01:45:07.989Z,100019.00
2023-04-22T01:47:36.406Z,100018.00
2023-04-22T01:50:05.112Z,100020.00
2023-04-22T01:52:33.283Z,100016.00
2023-04-22T01:55:02.134Z,100004.00
2023-04-22T01:57:31.100Z,100000.00
2023-04-22T01:59:59.558Z,100002.00
2023-04-22T02:02:28.376Z,100010.00
2023-04-22T02:04:57.745Z,100002.00
2023-04-22T02:07:26.376Z,100000.00
2023-04-22T02:09:54.552Z,100010.00
2023-04-22T02:12:23.409Z,100010.00
2023-04-22T02:14:51.567Z,100007.00
2023-04-22T02:17:19.902Z,100010.00
2023-04-22T02:19:48.033Z,100004.00
2023-04-22T02:22:16.405Z,100014.00
2023-04-22T02:24:44.782Z,100004.00
2023-04-22T02:27:12.930Z,100001.00
2023-04-22T02:29:42.344Z,100001.00
2023-04-22T02:32:10.949Z,100000.00
2023-04-22T02:34:39.131Z,100005.00
2023-04-22T02:37:07.642Z,100007.00
2023-04-22T02:39:36.052Z,100004.00
2023-04-22T02:42:04.461Z,99996.00
2023-04-22T02:44:32.561Z,99994.00
2023-04-22T02:47:00.744Z,99987.00
2023-04-22T02:49:28.780Z,99991.00
2023-04-22T02:51:58.541Z,99987.00
2023-04-22T02:54:26.910Z,99979.00
2023-04-22T02:56:55.009Z,99986.00
2023-04-22T02:59:23.364Z,99978.00
2023-04-22T03:01:51.376Z,99969.00
2023-04-22T03:04:38.395Z,99965.00
2023-04-22T03:07:06.773Z,99970.00
2023-04-22T03:09:35.827Z,99967.00
2023-04-22T03:12:04.459Z,99964.00
2023-04-22T03:14:32.745Z,99969.00
2023-04-22T03:17:01.426Z,99965.00
2023-04-22T03:19:32.644Z,99957.00
2023-04-22T03:22:04.002Z,99967.00
2023-04-22T03:24:32.393Z,99964.00
2023-04-22T03:27:04.920Z,99961.00
2023-04-22T03:29:32.919Z,99967.00
2023-04-22T03:32:04.017Z,99970.00
2023-04-22T03:34:37.039Z,99968.00
2023-04-22T03:37:08.442Z,99968.00
2023-04-22T03:39:37.171Z,99956.00
2023-04-22T03:42:06.749Z,99956.00
2023-04-22T03:44:41.334Z,99958.00
2023-04-22T03:47:09.870Z,99950.00
2023-04-22T03:49:45.675Z,99947.00
2023-04-22T03:52:13.660Z,99950.00
2023-04-22T03:54:48.557Z,99947.00
2023-04-22T03:57:17.769Z,99955.00
2023-04-22T03:59:46.013Z,99965.00
2023-04-22T04:05:36.258Z,99953.00
2023-04-22T04:08:04.822Z,99947.00
2023-04-22T04:10:33.397Z,99953.00
2023-04-22T04:13:03.827Z,99956.00
2023-04-22T04:15:39.645Z,99960.00
2023-04-22T04:18:10.009Z,99959.00
2023-04-22T04:20:38.100Z,99965.00
2023-04-22T04:23:06.295Z,99972.00
2023-04-22T04:25:39.763Z,99960.00
2023-04-22T04:28:12.479Z,99969.00
2023-04-22T04:30:41.917Z,99969.00
2023-04-22T04:33:12.641Z,99969.00
2023-04-22T04:35:45.099Z,99968.00
2023-04-22T04:38:17.859Z,99977.00
2023-04-22T04:40:46.134Z,99964.00
2023-04-22T04:43:26.350Z,99966.00
2023-04-22T04:46:14.238Z,99975.00
2023-04-22T04:48:44.234Z,99976.00
2023-04-22T04:51:12.706Z,99982.00
2023-04-22T04:53:47.286Z,99985.00
2023-04-22T04:56:15.413Z,99977.00
2023-04-22T04:58:44.330Z,99981.00
2023-04-22T05:01:20.307Z,99967.00
2023-04-22T05:03:49.577Z,99967.00
2023-04-22T05:06:19.631Z,99965.00
2023-04-22T05:08:52.860Z,99976.00
2023-04-22T05:11:21.841Z,99972.00
2023-04-22T05:13:54.410Z,99975.00
2023-04-22T05:16:28.777Z,99968.00
2023-04-22T05:18:57.871Z,99969.00
2023-04-22T05:21:26.007Z,99957.00
2023-04-22T05:23:54.843Z,99952.00
2023-04-22T05:26:23.196Z,99958.00
2023-04-22T05:28:52.044Z,99966.00
2023-04-22T05:31:20.910Z,99967.00
2023-04-22T05:33:49.465Z,99972.00
2023-04-22T05:36:17.931Z,99968.00
2023-04-22T05:38:48.426Z,99967.00
2023-04-22T05:41:17.167Z,99975.00
2023-04-22T05:43:45.630Z,99972.00
2023-04-22T05:46:17.808Z,99961.00
2023-04-22T05:48:49.062Z,99967.00
2023-04-22T05:51:35.860Z,99968.00
2023-04-22T05:54:04.237Z,99957.00
2023-04-22T05:56:32.517Z,99965.00
2023-04-22T05:59:00.858Z,99960.00
2023-04-22T06:01:29.011Z,99960.00
2023-04-22T06:04:06.892Z,99954.00
2023-04-22T06:06:35.459Z,99957.00
2023-04-22T06:09:03.961Z,99956.00
2023-04-22T06:11:32.394Z,99955.00
2023-04-22T06:14:00.788Z,99964.00
2023-04-22T06:16:30.265Z,99956.00
2023-04-22T06:18:58.832Z,99958.00
2023-04-22T06:21:27.606Z,99960.00
2023-04-22T06:23:57.704Z,99957.00
2023-04-22T06:26:25.951Z,99966.00
2023-04-22T06:28:54.289Z,99958.00
2023-04-22T06:31:23.031Z,99961.00
2023-04-22T06:33:51.530Z,99957.00
2023-04-22T06:36:20.596Z,99960.00
2023-04-22T06:38:55.103Z,99952.00
2023-04-22T06:41:44.639Z,99959.00
2023-04-22T06:44:35.745Z,99957.00
2023-04-22T06:47:18.260Z,99962.00
2023-04-22T06:49:54.227Z,99955.00
2023-04-22T06:52:27.476Z,99953.00
2023-04-22T06:55:00.299Z,99954.00
2023-04-22T06:57:28.631Z,99955.00
2023-04-22T06:59:57.081Z,99946.00
2023-04-22T07:02:28.002Z,99941.00
2023-04-22T07:04:56.372Z,99942.00
2023-04-22T07:07:25.761Z,99936.00
2023-04-22T07:09:54.206Z,99949.00
2023-04-22T07:12:22.217Z,99943.00
2023-04-22T07:14:50.837Z,99943.00
2023-04-22T07:17:22.357Z,99940.00
2023-04-22T07:19:50.864Z,99945.00
2023-04-22T07:22:19.003Z,99927.00
2023-04-22T07:24:47.062Z,99937.00
2023-04-22T07:27:15.234Z,99944.00
2023-04-22T07:29:43.902Z,99952.00
2023-04-22T07:32:12.399Z,99942.00
2023-04-22T07:34:40.665Z,99942.00
2023-04-22T07:37:09.749Z,99937.00
2023-04-22T07:39:38.134Z,99937.00
2023-04-22T07:42:07.620Z,99934.00
2023-04-22T07:44:36.111Z,99928.00
2023-04-22T07:47:08.744Z,99929.00
2023-04-22T07:49:36.872Z,99928.00
2023-04-22T07:52:05.180Z,99932.00
2023-04-22T07:54:33.547Z,99938.00
2023-04-22T07:57:01.839Z,99938.00
2023-04-22T07:59:30.226Z,99939.00
2023-04-22T08:01:58.552Z,99936.00
2023-04-22T08:04:27.121Z,99940.00
2023-04-22T08:06:56.176Z,99944.00
2023-04-22T08:09:24.257Z,99942.00
2023-04-22T08:11:54.545Z,99930.00
2023-04-22T08:14:22.758Z,99936.00
2023-04-22T08:16:52.790Z,99932.00
2023-04-22T08:19:21.268Z,99933.00
2023-04-22T08:21:49.253Z,99927.00
2023-04-22T08:24:17.374Z,99927.00
2023-04-22T08:26:45.425Z,99924.00
2023-04-22T08:29:13.654Z,99927.00
2023-04-22T08:31:42.406Z,99926.00
2023-04-22T08:34:11.310Z,99920.00
2023-04-22T08:36:39.437Z,99928.00
2023-04-22T08:39:07.555Z,99919.00
2023-04-22T08:41:36.196Z,99919.00
2023-04-22T08:44:04.569Z,99915.00
2023-04-22T08:46:32.643Z,99914.00
2023-04-22T08:49:04.105Z,99914.00
2023-04-22T08:51:35.881Z,99920.00
2023-04-22T08:54:03.905Z,99918.00
2023-04-22T08:56:32.730Z,99915.00
2023-04-22T08:59:01.055Z,99901.00
2023-04-22T09:01:30.234Z,99908.00
2023-04-22T09:04:01.129Z,99904.00
2023-04-22T09:06:29.638Z,99899.00
2023-04-22T09:08:59.240Z,99898.00
2023-04-22T09:11:32.213Z,99897.00
2023-04-22T09:14:00.222Z,99901.00
2023-04-22T09:16:30.170Z,99895.00
2023-04-22T09:18:58.854Z,99889.00
2023-04-22T09:21:30.671Z,99884.00
2023-04-22T09:23:59.794Z,99897.00
2023-04-22T09:26:27.879Z,99892.00
2023-04-22T09:29:01.271Z,99894.00
2023-04-22T09:31:30.098Z,99886.00
2023-04-22T09:33:59.951Z,99897.00
2023-04-22T09:36:37.822Z,99885.00
2023-04-22T09:39:08.917Z,99888.00
2023-04-22T09:41:39.972Z,99888.00
2023-04-22T09:44:12.564Z,99891.00
2023-04-22T09:46:43.821Z,99884.00
2023-04-22T09:49:12.358Z,99882.00
2023-04-22T09:51:43.358Z,99889.00
2023-04-22T09:54:12.330Z,99882.00
2023-04-22T09:56:48.886Z,99871.00
2023-04-22T09:59:28.830Z,99876.00
2023-04-22T10:02:01.807Z,99863.00
2023-04-22T10:04:30.497Z,99869.00
2023-04-22T10:06:58.816Z,99867.00
2023-04-22T10:09:27.094Z,99856.00
2023-04-22T10:11:58.652Z,99862.00
2023-04-22T10:14:27.661Z,99854.00
2023-04-22T10:17:00.090Z,99856.00
2023-04-22T10:19:28.779Z,99851.00
2023-04-22T10:22:01.919Z,99853.00
2023-04-22T10:24:34.790Z,99846.00
2023-04-22T10:27:08.706Z,99857.00
2023-04-22T10:29:43.090Z,99843.00
2023-04-22T10:32:18.254Z,99839.00
2023-04-22T10:34:50.102Z,99838.00
2023-04-22T10:37:22.234Z,99841.00
2023-04-22T10:40:12.692Z,99833.00
2023-04-22T10:42:42.378Z,99829.00
2023-04-22T10:45:15.099Z,99830.00
2023-04-22T10:47:43.832Z,99821.00
2023-04-22T10:50:29.004Z,99826.00
2023-04-22T10:53:18.449Z,99828.00
2023-04-22T10:55:53.723Z,99829.00
2023-04-22T10:58:23.644Z,99823.00
2023-04-22T11:01:00.326Z,99828.00
2023-04-22T11:03:30.482Z,99830.00
2023-04-22T11:06:19.818Z,99828.00
2023-04-22T11:08:52.876Z,99822.00
2023-04-22T11:11:21.362Z,99817.00
2023-04-22T11:13:53.134Z,99811.00
2023-04-22T11:16:23.501Z,99819.00
2023-04-22T11:18:51.974Z,99821.00
2023-04-22T11:21:21.440Z,99819.00
2023-04-22T11:23:54.304Z,99811.00
2023-04-22T11:26:35.582Z,99812.00
2023-04-22T11:29:04.094Z,99819.00
2023-04-22T11:31:32.717Z,99804.00
2023-04-22T11:34:01.169Z,99818.00
2023-04-22T11:36:29.575Z,99807.00
2023-04-22T11:38:58.590Z,99828.00
2023-04-22T11:41:28.208Z,99812.00
2023-04-22T11:43:57.237Z,99809.00
2023-04-22T11:46:38.743Z,99799.00
2023-04-22T11:49:17.424Z,99803.00
2023-04-22T11:51:59.262Z,99811.00
2023-04-22T11:54:35.344Z,99795.00
2023-04-22T11:57:05.320Z,99802.00
2023-04-22T11:59:33.344Z,99795.00
2023-04-22T12:02:05.550Z,99800.00
2023-04-22T12:04:40.794Z,99797.00
2023-04-22T12:07:09.366Z,99800.00
2023-04-22T12:09:37.920Z,99789.00
2023-04-22T12:12:08.916Z,99794.00
2023-04-22T12:14:37.804Z,99791.00
2023-04-22T12:17:07.141Z,99779.00
2023-04-22T12:19:35.189Z,99782.00
2023-04-22T12:22:06.337Z,99788.00
2023-04-22T12:24:34.596Z,99784.00
2023-04-22T12:27:03.709Z,99772.00
2023-04-22T12:29:33.743Z,99782.00
2023-04-22T12:32:02.115Z,99780.00
2023-04-22T12:34:30.189Z,99781.00
2023-04-22T12:37:00.059Z,99779.00
2023-04-22T12:39:28.360Z,99788.00
2023-04-22T12:41:58.822Z,99781.00
2023-04-22T12:44:26.961Z,99785.00
2023-04-22T12:46:55.810Z,99765.00
2023-04-22T12:49:23.989Z,99766.00
2023-04-22T12:51:52.448Z,99772.00
2023-04-22T12:54:21.409Z,99762.00
2023-04-22T12:56:50.070Z,99769.00
2023-04-22T12:59:18.631Z,99763.00
2023-04-22T13:01:47.060Z,99768.00
2023-04-22T13:04:15.582Z,99752.00
2023-04-22T13:06:44.975Z,99753.00
2023-04-22T13:09:16.119Z,99748.00
2023-04-22T13:11:44.653Z,99747.00
2023-04-22T13:14:12.969Z,99739.00
2023-04-22T13:16:41.075Z,99738.00
2023-04-22T13:19:09.651Z,99738.00
2023-04-22T13:21:37.959Z,99745.00
2023-04-22T13:24:06.427Z,99746.00
2023-04-22T13:26:34.685Z,99729.00
2023-04-22T13:29:02.942Z,99728.00
2023-04-22T13:31:31.532Z,99736.00
2023-04-22T13:34:00.945Z,99726.00
2023-04-22T13:36:29.548Z,99726.00
2023-04-22T13:38:58.622Z,99723.00
2023-04-22T13:41:27.009Z,99720.00
2023-04-22T13:43:57.776Z,99720.00
2023-04-22T13:46:26.804Z,99724.00
2023-04-22T13:48:56.815Z,99722.00
2023-04-22T13:51:25.172Z,99718.00
2023-04-22T13:53:53.150Z,99718.00
2023-04-22T13:56:21.316Z,99709.00
2023-04-22T13:58:49.309Z,99711.00
2023-04-22T14:01:17.937Z,99706.00
2023-04-22T14:03:47.008Z,99704.00
2023-04-22T14:06:16.335Z,99699.00
2023-04-22T14:08:44.861Z,99696.00
2023-04-22T14:11:13.265Z,99697.00
2023-04-22T14:13:41.453Z,99690.00
2023-04-22T14:16:12.105Z,99694.00
2023-04-22T14:18:40.636Z,99688.00
2023-04-22T14:21:09.884Z,99682.00
2023-04-22T14:23:39.182Z,99678.00
2023-04-22T14:26:11.924Z,99675.00
2023-04-22T14:28:41.586Z,99673.00
2023-04-22T14:31:10.301Z,99675.00
2023-04-22T14:33:38.486Z,99668.00
2023-04-22T14:36:06.964Z,99674.00
2023-04-22T14:38:35.091Z,99666.00
2023-04-22T14:41:03.356Z,99664.00
2023-04-22T14:43:33.344Z,99657.00
2023-04-22T14:46:02.105Z,99650.00
2023-04-22T14:48:32.593Z,99649.00
2023-04-22T14:51:01.427Z,99646.00
2023-04-22T14:53:30.369Z,99644.00
2023-04-22T14:55:58.691Z,99651.00
2023-04-22T14:58:27.360Z,99632.00
2023-04-22T15:00:55.634Z,99638.00
2023-04-22T15:03:23.962Z,99635.00
2023-04-22T15:05:52.839Z,99635.00
2023-04-22T15:08:21.017Z,99634.00
2023-04-22T15:10:49.131Z,99629.00
2023-04-22T15:13:17.270Z,99620.00
2023-04-22T15:15:48.059Z,99623.00
2023-04-22T15:18:16.208Z,99620.00
2023-04-22T15:20:44.361Z,99623.00
2023-04-22T15:23:12.350Z,99615.00
2023-04-22T15:25:40.404Z,99613.00
2023-04-22T15:28:08.309Z,99605.00
2023-04-22T15:30:36.880Z,99604.00
2023-04-22T15:33:05.820Z,99606.00
2023-04-22T15:35:33.861Z,99608.00
2023-04-22T15:38:03.579Z,99608.00
2023-04-22T15:40:31.898Z,99602.00
2023-04-22T15:43:00.415Z,99607.00
2023-04-22T15:45:28.717Z,99608.00
2023-04-22T15:47:56.787Z,99595.00
2023-04-22T15:50:25.594Z,99602.00
2023-04-22T15:52:54.827Z,99601.00
2023-04-22T15:55:23.049Z,99604.00
2023-04-22T15:57:51.147Z,99597.00
2023-04-22T16:00:19.437Z,99599.00
2023-04-22T16:02:55.387Z,99599.00
2023-04-22T16:05:25.374Z,99597.00
2023-04-22T16:07:54.167Z,99599.00
2023-04-22T16:10:23.491Z,99597.00
2023-04-22T16:12:52.454Z,99593.00
2023-04-22T16:15:22.944Z,99592.00
2023-04-22T16:17:51.386Z,99585.00
2023-04-22T16:20:19.812Z,99592.00
2023-04-22T16:22:48.457Z,99597.00
2023-04-22T16:25:19.516Z,99598.00
2023-04-22T16:27:47.475Z,99599.00
2023-04-22T16:30:16.435Z,99593.00
2023-04-22T16:32:44.855Z,99592.00
2023-04-22T16:35:13.078Z,99584.00
2023-04-22T16:37:41.696Z,99587.00
2023-04-22T16:40:10.251Z,99585.00
2023-04-22T16:42:38.603Z,99584.00
2023-04-22T16:45:08.561Z,99580.00
2023-04-22T16:47:36.647Z,99584.00
2023-04-22T16:50:05.107Z,99574.00
2023-04-22T16:52:33.355Z,99577.00
2023-04-22T16:55:01.442Z,99572.00
2023-04-22T16:57:29.968Z,99567.00
2023-04-22T16:59:58.662Z,99566.00
2023-04-22T17:02:27.166Z,99562.00
2023-04-22T17:04:55.706Z,99561.00
2023-04-22T17:07:23.771Z,99564.00
2023-04-22T17:09:51.796Z,99561.00
2023-04-22T17:12:20.134Z,99552.00
2023-04-22T17:14:48.291Z,99557.00
2023-04-22T17:17:16.988Z,99548.00
2023-04-22T17:19:45.064Z,99553.00
2023-04-22T17:22:13.367Z,99552.00
2023-04-22T17:24:42.098Z,99552.00
2023-04-22T17:27:10.612Z,99539.00
2023-04-22T17:29:38.945Z,99547.00
2023-04-22T17:32:07.643Z,99547.00
2023-04-22T17:34:35.973Z,99554.00
2023-04-22T17:37:04.156Z,99547.00
2023-04-22T17:39:32.390Z,99548.00
2023-04-22T17:42:01.289Z,99548.00
2023-04-22T17:44:32.224Z,99541.00
2023-04-22T17:47:00.333Z,99541.00
2023-04-22T17:49:28.934Z,99526.00
2023-04-22T17:51:57.078Z,99532.00
2023-04-22T17:54:25.577Z,99534.00
2023-04-22T17:56:53.611Z,99525.00
2023-04-22T17:59:21.790Z,99531.00
2023-04-22T18:01:50.034Z,99534.00
2023-04-22T18:04:18.115Z,99535.00
2023-04-22T18:06:46.318Z,99532.00
2023-04-22T18:09:14.455Z,99532.00
2023-04-22T18:11:42.708Z,99532.00
2023-04-22T18:14:11.399Z,99532.00
2023-04-22T18:16:39.579Z,99534.00
2023-04-22T18:19:07.763Z,99535.00
2023-04-22T18:21:39.661Z,99531.00
2023-04-22T18:24:09.662Z,99538.00
2023-04-22T18:26:37.930Z,99549.00
2023-04-22T18:29:06.398Z,99550.00
2023-04-22T18:31:35.098Z,99544.00
2023-04-22T18:34:03.312Z,99544.00
2023-04-22T18:36:32.360Z,99548.00
2023-04-22T18:39:01.140Z,99550.00
2023-04-22T18:41:29.464Z,99549.00
2023-04-22T18:43:57.853Z,99563.00
2023-04-22T18:46:26.313Z,99560.00
2023-04-22T18:48:54.428Z,99564.00
2023-04-22T18:51:22.464Z,99561.00
2023-04-22T18:53:50.661Z,99567.00
2023-04-22T18:56:19.225Z,99566.00
2023-04-22T18:58:47.337Z,99566.00
2023-04-22T19:01:15.830Z,99569.00
2023-04-22T19:03:44.535Z,99566.00
2023-04-22T19:06:13.392Z,99578.00
2023-04-22T19:08:41.602Z,99577.00
2023-04-22T19:11:09.919Z,99594.00
2023-04-22T19:13:38.054Z,99604.00
2023-04-22T19:16:06.490Z,99604.00
2023-04-22T19:18:34.444Z,99593.00
2023-04-22T19:21:03.616Z,99590.00
2023-04-22T19:23:31.892Z,99603.00
2023-04-22T19:26:00.327Z,99600.00
2023-04-22T19:28:28.842Z,99606.00
2023-04-22T19:30:57.365Z,99610.00
2023-04-22T19:33:25.312Z,99607.00
2023-04-22T19:35:53.266Z,99607.00
2023-04-22T19:38:22.996Z,99605.00
2023-04-22T19:40:51.530Z,99612.00
2023-04-22T19:43:19.559Z,99610.00
2023-04-22T19:45:47.753Z,99608.00
2023-04-22T19:48:16.320Z,99611.00
2023-04-22T19:50:45.120Z,99602.00
2023-04-22T19:53:13.270Z,99599.00
2023-04-22T19:55:41.675Z,99597.00
2023-04-22T19:58:10.001Z,99601.00
2023-04-22T20:00:39.528Z,99595.00
2023-04-22T20:03:08.652Z,99602.00
2023-04-22T20:05:38.180Z,99596.00
2023-04-22T20:08:09.655Z,99596.00
2023-04-22T20:10:37.946Z,99590.00
2023-04-22T20:13:06.439Z,99593.00
2023-04-22T20:15:34.850Z,99591.00
2023-04-22T20:18:03.619Z,99591.00
2023-04-22T20:20:32.755Z,99586.00
2023-04-22T20:23:10.537Z,99583.00
2023-04-22T20:25:42.328Z,99579.00
2023-04-22T20:28:11.201Z,99584.00
2023-04-22T20:30:39.989Z,99569.00
2023-04-22T20:33:10.602Z,99565.00
2023-04-22T20:35:40.713Z,99571.00
2023-04-22T20:38:09.252Z,99567.00
2023-04-22T20:40:38.778Z,99567.00
2023-04-22T20:43:07.462Z,99560.00
2023-04-22T20:45:35.798Z,99557.00
2023-04-22T20:48:04.145Z,99553.00
2023-04-22T20:50:33.967Z,99560.00
2023-04-22T20:53:02.433Z,99554.00
2023-04-22T20:55:30.477Z,99560.00
2023-04-22T20:57:59.101Z,99560.00
2023-04-22T21:00:27.423Z,99560.00
2023-04-22T21:02:56.690Z,99555.00
2023-04-22T21:05:29.118Z,99555.00
2023-04-22T21:07:57.713Z,99555.00
2023-04-22T21:10:25.863Z,99554.00
2023-04-22T21:12:55.908Z,99555.00
2023-04-22T21:15:25.451Z,99560.00
2023-04-22T21:17:57.353Z,99566.00
2023-04-22T21:20:27.524Z,99557.00
2023-04-22T21:22:56.021Z,99554.00
2023-04-22T21:25:25.988Z,99565.00
2023-04-22T21:27:54.921Z,99564.00
2023-04-22T21:30:23.831Z,99569.00
2023-04-22T21:32:52.009Z,99572.00
2023-04-22T21:35:23.705Z,99575.00
2023-04-22T21:37:54.499Z,99574.00
2023-04-22T21:40:23.235Z,99570.00
2023-04-22T21:42:51.473Z,99572.00
2023-04-22T21:45:21.840Z,99567.00
2023-04-22T21:47:50.541Z,99572.00
2023-04-22T21:50:20.797Z,99572.00
2023-04-22T21:52:49.593Z,99568.00
2023-04-22T21:55:19.030Z,99570.00
2023-04-22T21:57:47.507Z,99574.00
2023-04-22T22:00:18.831Z,99570.00
2023-04-22T22:02:49.204Z,99572.00
2023-04-22T22:05:17.678Z,99569.00
2023-04-22T22:07:46.127Z,99570.00
2023-04-22T22:10:19.592Z,99569.00
2023-04-22T22:12:49.361Z,99577.00
2023-04-22T22:15:21.211Z,99573.00
2023-04-22T22:17:50.936Z,99579.00
2023-04-22T22:20:22.115Z,99577.00
2023-04-22T22:22:51.535Z,99580.00
2023-04-22T22:25:19.892Z,99586.00
2023-04-22T22:27:49.590Z,99586.00
2023-04-22T22:30:21.135Z,99587.00
2023-04-22T22:32:49.679Z,99591.00
2023-04-22T22:35:18.352Z,99586.00
2023-04-22T22:37:46.681Z,99588.00
2023-04-22T22:40:15.130Z,99593.00
2023-04-22T22:42:43.883Z,99595.00
2023-04-22T22:45:13.907Z,99599.00
2023-04-22T22:47:42.347Z,99604.00
2023-04-22T22:50:12.329Z,99600.00
2023-04-22T22:52:40.826Z,99594.00
2023-04-22T22:55:10.131Z,99601.00
2023-04-22T22:57:38.430Z,99595.00
2023-04-22T23:00:07.742Z,99592.00
2023-04-22T23:02:36.360Z,99589.00
2023-04-22T23:05:04.495Z,99587.00
2023-04-22T23:07:32.601Z,99595.00
2023-04-22T23:10:00.627Z,99599.00
2023-04-22T23:12:28.938Z,99590.00
2023-04-22T23:14:57.995Z,99591.00
2023-04-22T23:17:26.645Z,99589.00
2023-04-22T23:19:56.480Z,99592.00
2023-04-22T23:22:25.018Z,99598.00
2023-04-22T23:24:53.454Z,99588.00
2023-04-22T23:27:22.429Z,99591.00
2023-04-22T23:29:51.101Z,99584.00
2023-04-22T23:32:21.476Z,99588.00
2023-04-22T23:34:51.060Z,99588.00
2023-04-22T23:37:20.331Z,99589.00
2023-04-22T23:39:51.911Z,99597.00
2023-04-22T23:42:23.144Z,99581.00
2023-04-22T23:44:52.168Z,99587.00
2023-04-22T23:47:20.638Z,99579.00
2023-04-22T23:49:48.678Z,99581.00
2023-04-22T23:52:20.048Z,99585.00
2023-04-22T23:54:48.320Z,99583.00
2023-04-22T23:57:17.377Z,99581.00
2023-04-22T23:59:46.318Z,99582.00
